sensor_id;sensor_type;location;lat;lon;timestamp;temperature;humidity
1568;DHT22;777;47.156;8.326;2023-06-14T00:00:32;17.20;82.40
1568;DHT22;777;47.156;8.326;2023-06-14T00:03:00;17.20;82.90
1568;DHT22;777;47.156;8.326;2023-06-14T00:05:28;17.20;83.30
1568;DHT22;777;47.156;8.326;2023-06-14T00:07:55;17.10;83.20
1568;DHT22;777;47.156;8.326;2023-06-14T00:10:22;17.00;83.50
1568;DHT22;777;47.156;8.326;2023-06-14T00:12:50;17.00;83.80
1568;DHT22;777;47.156;8.326;2023-06-14T00:15:17;17.00;84.00
1568;DHT22;777;47.156;8.326;2023-06-14T00:17:44;17.00;84.40
1568;DHT22;777;47.156;8.326;2023-06-14T00:20:13;16.80;84.70
1568;DHT22;777;47.156;8.326;2023-06-14T00:22:40;16.90;85.20
1568;DHT22;777;47.156;8.326;2023-06-14T00:25:07;16.90;85.40
1568;DHT22;777;47.156;8.326;2023-06-14T00:27:34;16.90;85.10
1568;DHT22;777;47.156;8.326;2023-06-14T00:30:03;16.90;85.20
1568;DHT22;777;47.156;8.326;2023-06-14T00:32:30;16.90;85.50
1568;DHT22;777;47.156;8.326;2023-06-14T00:34:57;16.70;85.50
1568;DHT22;777;47.156;8.326;2023-06-14T00:37:24;16.50;86.50
1568;DHT22;777;47.156;8.326;2023-06-14T00:39:51;16.30;88.80
1568;DHT22;777;47.156;8.326;2023-06-14T00:42:25;15.90;90.30
1568;DHT22;777;47.156;8.326;2023-06-14T00:44:52;15.90;90.80
1568;DHT22;777;47.156;8.326;2023-06-14T00:47:21;15.90;91.00
1568;DHT22;777;47.156;8.326;2023-06-14T00:49:49;15.70;91.10
1568;DHT22;777;47.156;8.326;2023-06-14T00:52:18;15.60;91.40
1568;DHT22;777;47.156;8.326;2023-06-14T00:54:45;15.40;91.60
1568;DHT22;777;47.156;8.326;2023-06-14T00:57:13;15.40;90.90
1568;DHT22;777;47.156;8.326;2023-06-14T00:59:43;15.20;91.30
1568;DHT22;777;47.156;8.326;2023-06-14T01:02:10;15.10;91.90
1568;DHT22;777;47.156;8.326;2023-06-14T01:04:40;14.90;92.80
1568;DHT22;777;47.156;8.326;2023-06-14T01:07:11;15.00;93.40
1568;DHT22;777;47.156;8.326;2023-06-14T01:09:51;14.90;93.90
1568;DHT22;777;47.156;8.326;2023-06-14T01:12:27;14.60;95.40
1568;DHT22;777;47.156;8.326;2023-06-14T01:14:57;14.50;95.70
1568;DHT22;777;47.156;8.326;2023-06-14T01:17:24;14.50;96.30
1568;DHT22;777;47.156;8.326;2023-06-14T01:19:54;14.50;95.80
1568;DHT22;777;47.156;8.326;2023-06-14T01:22:25;14.70;96.60
1568;DHT22;777;47.156;8.326;2023-06-14T01:24:56;14.70;96.20
1568;DHT22;777;47.156;8.326;2023-06-14T01:27:24;14.80;96.50
1568;DHT22;777;47.156;8.326;2023-06-14T01:29:54;14.70;96.80
1568;DHT22;777;47.156;8.326;2023-06-14T01:32:23;14.60;97.20
1568;DHT22;777;47.156;8.326;2023-06-14T01:34:51;14.60;97.70
1568;DHT22;777;47.156;8.326;2023-06-14T01:37:19;14.50;97.50
1568;DHT22;777;47.156;8.326;2023-06-14T01:39:47;14.40;97.30
1568;DHT22;777;47.156;8.326;2023-06-14T01:42:20;14.30;97.60
1568;DHT22;777;47.156;8.326;2023-06-14T01:44:47;14.20;98.40
1568;DHT22;777;47.156;8.326;2023-06-14T01:47:15;13.80;99.90
1568;DHT22;777;47.156;8.326;2023-06-14T01:49:42;13.70;99.90
1568;DHT22;777;47.156;8.326;2023-06-14T01:52:09;13.70;99.90
1568;DHT22;777;47.156;8.326;2023-06-14T01:54:36;13.00;99.90
1568;DHT22;777;47.156;8.326;2023-06-14T01:57:07;13.20;99.90
1568;DHT22;777;47.156;8.326;2023-06-14T01:59:36;13.30;99.90
1568;DHT22;777;47.156;8.326;2023-06-14T02:02:03;13.30;99.90
1568;DHT22;777;47.156;8.326;2023-06-14T02:04:31;13.50;99.90
1568;DHT22;777;47.156;8.326;2023-06-14T02:06:59;13.60;99.90
1568;DHT22;777;47.156;8.326;2023-06-14T02:09:26;13.50;99.90
1568;DHT22;777;47.156;8.326;2023-06-14T02:11:54;13.30;99.90
1568;DHT22;777;47.156;8.326;2023-06-14T02:14:21;13.30;99.90
1568;DHT22;777;47.156;8.326;2023-06-14T02:16:51;13.00;99.90
1568;DHT22;777;47.156;8.326;2023-06-14T02:19:19;13.20;99.90
1568;DHT22;777;47.156;8.326;2023-06-14T02:21:47;13.20;99.90
1568;DHT22;777;47.156;8.326;2023-06-14T02:24:14;13.10;99.90
1568;DHT22;777;47.156;8.326;2023-06-14T02:26:41;13.00;99.90
1568;DHT22;777;47.156;8.326;2023-06-14T02:29:08;12.90;99.90
1568;DHT22;777;47.156;8.326;2023-06-14T02:31:38;12.90;99.90
1568;DHT22;777;47.156;8.326;2023-06-14T02:34:06;12.90;99.90
1568;DHT22;777;47.156;8.326;2023-06-14T02:36:34;12.50;99.90
1568;DHT22;777;47.156;8.326;2023-06-14T02:39:07;12.20;99.90
1568;DHT22;777;47.156;8.326;2023-06-14T02:41:35;12.50;99.90
1568;DHT22;777;47.156;8.326;2023-06-14T02:44:02;12.60;99.90
1568;DHT22;777;47.156;8.326;2023-06-14T02:46:29;12.70;99.90
1568;DHT22;777;47.156;8.326;2023-06-14T02:48:59;12.80;99.90
1568;DHT22;777;47.156;8.326;2023-06-14T02:51:27;12.80;99.90
1568;DHT22;777;47.156;8.326;2023-06-14T02:53:54;12.90;99.90
1568;DHT22;777;47.156;8.326;2023-06-14T02:56:23;12.90;99.90
1568;DHT22;777;47.156;8.326;2023-06-14T02:58:52;12.80;99.90
1568;DHT22;777;47.156;8.326;2023-06-14T03:01:19;12.90;99.90
1568;DHT22;777;47.156;8.326;2023-06-14T03:03:47;12.80;99.90
1568;DHT22;777;47.156;8.326;2023-06-14T03:06:14;12.80;99.90
1568;DHT22;777;47.156;8.326;2023-06-14T03:08:45;12.90;99.90
1568;DHT22;777;47.156;8.326;2023-06-14T03:11:15;12.80;99.90
1568;DHT22;777;47.156;8.326;2023-06-14T03:13:46;12.70;99.90
1568;DHT22;777;47.156;8.326;2023-06-14T03:16:13;12.80;99.90
1568;DHT22;777;47.156;8.326;2023-06-14T03:18:40;12.70;99.90
1568;DHT22;777;47.156;8.326;2023-06-14T03:21:07;12.70;99.90
1568;DHT22;777;47.156;8.326;2023-06-14T03:23:37;12.80;99.90
1568;DHT22;777;47.156;8.326;2023-06-14T03:26:05;12.60;99.90
1568;DHT22;777;47.156;8.326;2023-06-14T03:28:32;12.50;99.90
1568;DHT22;777;47.156;8.326;2023-06-14T03:30:59;12.40;99.90
1568;DHT22;777;47.156;8.326;2023-06-14T03:33:30;12.40;99.90
1568;DHT22;777;47.156;8.326;2023-06-14T03:35:57;12.30;99.90
1568;DHT22;777;47.156;8.326;2023-06-14T03:38:26;12.30;99.90
1568;DHT22;777;47.156;8.326;2023-06-14T03:40:53;12.30;99.90
1568;DHT22;777;47.156;8.326;2023-06-14T03:43:21;12.40;99.90
1568;DHT22;777;47.156;8.326;2023-06-14T03:45:49;12.50;99.90
1568;DHT22;777;47.156;8.326;2023-06-14T03:48:17;12.50;99.90
1568;DHT22;777;47.156;8.326;2023-06-14T03:50:45;12.50;99.90
1568;DHT22;777;47.156;8.326;2023-06-14T03:53:13;12.60;99.90
1568;DHT22;777;47.156;8.326;2023-06-14T03:55:43;12.40;99.90
1568;DHT22;777;47.156;8.326;2023-06-14T03:58:11;12.40;99.90
1568;DHT22;777;47.156;8.326;2023-06-14T04:00:40;12.60;99.90
1568;DHT22;777;47.156;8.326;2023-06-14T04:03:07;12.60;99.90
1568;DHT22;777;47.156;8.326;2023-06-14T04:05:35;12.80;99.90
1568;DHT22;777;47.156;8.326;2023-06-14T04:08:03;12.80;99.90
1568;DHT22;777;47.156;8.326;2023-06-14T04:10:34;13.00;99.90
1568;DHT22;777;47.156;8.326;2023-06-14T04:13:01;13.00;99.90
1568;DHT22;777;47.156;8.326;2023-06-14T04:15:29;13.20;99.90
1568;DHT22;777;47.156;8.326;2023-06-14T04:17:59;13.30;99.90
1568;DHT22;777;47.156;8.326;2023-06-14T04:20:26;13.30;99.90
1568;DHT22;777;47.156;8.326;2023-06-14T04:22:56;13.30;99.90
1568;DHT22;777;47.156;8.326;2023-06-14T04:25:24;13.40;99.90
1568;DHT22;777;47.156;8.326;2023-06-14T04:27:53;13.60;99.90
1568;DHT22;777;47.156;8.326;2023-06-14T04:30:21;13.60;99.90
1568;DHT22;777;47.156;8.326;2023-06-14T04:32:52;13.70;99.90
1568;DHT22;777;47.156;8.326;2023-06-14T04:35:23;13.90;99.90
1568;DHT22;777;47.156;8.326;2023-06-14T04:37:51;14.10;99.90
1568;DHT22;777;47.156;8.326;2023-06-14T04:40:19;14.20;99.90
1568;DHT22;777;47.156;8.326;2023-06-14T04:42:47;14.30;99.90
1568;DHT22;777;47.156;8.326;2023-06-14T04:45:15;14.50;99.90
1568;DHT22;777;47.156;8.326;2023-06-14T04:47:44;14.50;99.90
1568;DHT22;777;47.156;8.326;2023-06-14T04:50:11;14.60;99.90
1568;DHT22;777;47.156;8.326;2023-06-14T04:52:41;14.80;99.90
1568;DHT22;777;47.156;8.326;2023-06-14T04:55:09;14.90;99.90
1568;DHT22;777;47.156;8.326;2023-06-14T04:57:36;15.00;99.90
1568;DHT22;777;47.156;8.326;2023-06-14T05:00:05;15.20;99.90
1568;DHT22;777;47.156;8.326;2023-06-14T05:02:33;15.30;99.90
1568;DHT22;777;47.156;8.326;2023-06-14T05:05:01;15.40;99.90
1568;DHT22;777;47.156;8.326;2023-06-14T05:07:28;15.40;99.90
1568;DHT22;777;47.156;8.326;2023-06-14T05:09:57;15.10;99.90
1568;DHT22;777;47.156;8.326;2023-06-14T05:12:25;15.10;99.90
1568;DHT22;777;47.156;8.326;2023-06-14T05:14:52;14.90;99.90
1568;DHT22;777;47.156;8.326;2023-06-14T05:17:21;14.90;99.90
1568;DHT22;777;47.156;8.326;2023-06-14T05:19:48;15.00;99.90
1568;DHT22;777;47.156;8.326;2023-06-14T05:22:15;15.10;99.90
1568;DHT22;777;47.156;8.326;2023-06-14T05:24:42;15.10;99.90
1568;DHT22;777;47.156;8.326;2023-06-14T05:27:10;15.30;99.90
1568;DHT22;777;47.156;8.326;2023-06-14T05:29:38;15.40;99.90
1568;DHT22;777;47.156;8.326;2023-06-14T05:32:06;15.40;99.90
1568;DHT22;777;47.156;8.326;2023-06-14T05:34:33;15.60;99.90
1568;DHT22;777;47.156;8.326;2023-06-14T05:37:00;15.30;99.90
1568;DHT22;777;47.156;8.326;2023-06-14T05:39:29;15.10;99.90
1568;DHT22;777;47.156;8.326;2023-06-14T05:41:56;15.40;99.90
1568;DHT22;777;47.156;8.326;2023-06-14T05:44:25;15.30;99.90
1568;DHT22;777;47.156;8.326;2023-06-14T05:46:52;15.20;99.90
1568;DHT22;777;47.156;8.326;2023-06-14T05:49:19;15.60;99.90
1568;DHT22;777;47.156;8.326;2023-06-14T05:51:46;15.50;99.90
1568;DHT22;777;47.156;8.326;2023-06-14T05:54:13;15.80;99.90
1568;DHT22;777;47.156;8.326;2023-06-14T05:56:40;15.80;99.90
1568;DHT22;777;47.156;8.326;2023-06-14T05:59:07;16.00;99.90
1568;DHT22;777;47.156;8.326;2023-06-14T06:01:35;16.10;99.90
1568;DHT22;777;47.156;8.326;2023-06-14T06:04:03;16.50;99.90
1568;DHT22;777;47.156;8.326;2023-06-14T06:06:30;16.70;99.90
1568;DHT22;777;47.156;8.326;2023-06-14T06:08:58;16.90;99.90
1568;DHT22;777;47.156;8.326;2023-06-14T06:11:26;17.20;99.90
1568;DHT22;777;47.156;8.326;2023-06-14T06:13:53;17.40;99.90
1568;DHT22;777;47.156;8.326;2023-06-14T06:16:20;17.70;99.90
1568;DHT22;777;47.156;8.326;2023-06-14T06:18:48;17.90;99.90
1568;DHT22;777;47.156;8.326;2023-06-14T06:21:15;18.10;99.90
1568;DHT22;777;47.156;8.326;2023-06-14T06:23:42;18.20;99.90
1568;DHT22;777;47.156;8.326;2023-06-14T06:26:09;18.50;99.90
1568;DHT22;777;47.156;8.326;2023-06-14T06:28:36;18.80;99.90
1568;DHT22;777;47.156;8.326;2023-06-14T06:31:03;19.10;99.90
1568;DHT22;777;47.156;8.326;2023-06-14T06:33:30;19.30;99.90
1568;DHT22;777;47.156;8.326;2023-06-14T06:35:59;19.50;99.90
1568;DHT22;777;47.156;8.326;2023-06-14T06:38:26;19.70;99.90
1568;DHT22;777;47.156;8.326;2023-06-14T06:40:53;19.90;99.90
1568;DHT22;777;47.156;8.326;2023-06-14T06:43:20;19.90;99.90
1568;DHT22;777;47.156;8.326;2023-06-14T06:45:48;20.10;99.90
1568;DHT22;777;47.156;8.326;2023-06-14T06:48:15;20.30;99.90
1568;DHT22;777;47.156;8.326;2023-06-14T06:50:42;20.50;99.90
1568;DHT22;777;47.156;8.326;2023-06-14T06:53:10;20.60;99.90
1568;DHT22;777;47.156;8.326;2023-06-14T06:55:37;20.90;99.90
1568;DHT22;777;47.156;8.326;2023-06-14T06:58:04;20.90;99.90
1568;DHT22;777;47.156;8.326;2023-06-14T07:00:32;21.00;99.90
1568;DHT22;777;47.156;8.326;2023-06-14T07:02:59;21.30;99.90
1568;DHT22;777;47.156;8.326;2023-06-14T07:05:26;21.50;99.90
1568;DHT22;777;47.156;8.326;2023-06-14T07:07:53;21.60;99.90
1568;DHT22;777;47.156;8.326;2023-06-14T07:10:21;21.90;99.90
1568;DHT22;777;47.156;8.326;2023-06-14T07:12:50;22.00;99.60
1568;DHT22;777;47.156;8.326;2023-06-14T07:15:17;22.10;99.50
1568;DHT22;777;47.156;8.326;2023-06-14T07:17:44;22.00;99.30
1568;DHT22;777;47.156;8.326;2023-06-14T07:20:12;22.30;99.20
1568;DHT22;777;47.156;8.326;2023-06-14T07:22:39;22.50;98.10
1568;DHT22;777;47.156;8.326;2023-06-14T07:25:08;22.00;95.20
1568;DHT22;777;47.156;8.326;2023-06-14T07:27:36;21.70;95.70
1568;DHT22;777;47.156;8.326;2023-06-14T07:30:04;22.00;96.10
1568;DHT22;777;47.156;8.326;2023-06-14T07:32:32;22.50;95.60
1568;DHT22;777;47.156;8.326;2023-06-14T07:34:59;22.70;94.40
1568;DHT22;777;47.156;8.326;2023-06-14T07:37:26;22.70;94.70
1568;DHT22;777;47.156;8.326;2023-06-14T07:39:53;22.80;94.50
1568;DHT22;777;47.156;8.326;2023-06-14T07:42:20;22.90;94.20
1568;DHT22;777;47.156;8.326;2023-06-14T07:44:48;23.10;94.00
1568;DHT22;777;47.156;8.326;2023-06-14T07:47:16;23.20;94.30
1568;DHT22;777;47.156;8.326;2023-06-14T07:49:43;23.30;94.10
1568;DHT22;777;47.156;8.326;2023-06-14T07:52:10;22.40;93.10
1568;DHT22;777;47.156;8.326;2023-06-14T07:54:39;21.80;93.40
1568;DHT22;777;47.156;8.326;2023-06-14T07:57:06;22.00;94.40
1568;DHT22;777;47.156;8.326;2023-06-14T07:59:34;22.40;95.00
1568;DHT22;777;47.156;8.326;2023-06-14T08:02:03;22.60;95.40
1568;DHT22;777;47.156;8.326;2023-06-14T08:04:31;22.60;95.80
1568;DHT22;777;47.156;8.326;2023-06-14T08:06:58;22.80;96.20
1568;DHT22;777;47.156;8.326;2023-06-14T08:09:25;22.80;95.30
1568;DHT22;777;47.156;8.326;2023-06-14T08:11:54;22.60;95.40
1568;DHT22;777;47.156;8.326;2023-06-14T08:14:21;22.50;95.00
1568;DHT22;777;47.156;8.326;2023-06-14T08:16:48;22.70;95.20
1568;DHT22;777;47.156;8.326;2023-06-14T08:19:16;22.70;95.40
1568;DHT22;777;47.156;8.326;2023-06-14T08:21:43;23.00;94.80
1568;DHT22;777;47.156;8.326;2023-06-14T08:24:11;22.90;93.90
1568;DHT22;777;47.156;8.326;2023-06-14T08:26:39;22.50;94.70
1568;DHT22;777;47.156;8.326;2023-06-14T08:29:06;22.60;94.30
1568;DHT22;777;47.156;8.326;2023-06-14T08:31:34;22.50;94.50
1568;DHT22;777;47.156;8.326;2023-06-14T08:34:01;22.70;95.10
1568;DHT22;777;47.156;8.326;2023-06-14T08:36:29;22.90;96.00
1568;DHT22;777;47.156;8.326;2023-06-14T08:38:56;23.00;96.00
1568;DHT22;777;47.156;8.326;2023-06-14T08:41:24;23.20;96.00
1568;DHT22;777;47.156;8.326;2023-06-14T08:43:51;23.30;95.60
1568;DHT22;777;47.156;8.326;2023-06-14T08:46:18;23.20;95.40
1568;DHT22;777;47.156;8.326;2023-06-14T08:48:49;23.00;95.70
1568;DHT22;777;47.156;8.326;2023-06-14T08:51:18;23.20;96.40
1568;DHT22;777;47.156;8.326;2023-06-14T08:53:49;23.20;94.00
1568;DHT22;777;47.156;8.326;2023-06-14T08:56:18;23.20;95.10
1568;DHT22;777;47.156;8.326;2023-06-14T08:58:47;23.50;95.10
1568;DHT22;777;47.156;8.326;2023-06-14T09:01:14;23.50;94.40
1568;DHT22;777;47.156;8.326;2023-06-14T09:03:43;23.50;95.60
1568;DHT22;777;47.156;8.326;2023-06-14T09:06:10;23.70;96.00
1568;DHT22;777;47.156;8.326;2023-06-14T09:08:40;23.80;93.70
1568;DHT22;777;47.156;8.326;2023-06-14T09:11:10;24.00;92.60
1568;DHT22;777;47.156;8.326;2023-06-14T09:13:38;24.30;91.40
1568;DHT22;777;47.156;8.326;2023-06-14T09:16:06;24.20;89.90
1568;DHT22;777;47.156;8.326;2023-06-14T09:18:37;24.10;88.60
1568;DHT22;777;47.156;8.326;2023-06-14T09:21:06;24.20;90.20
1568;DHT22;777;47.156;8.326;2023-06-14T09:23:36;24.50;90.30
1568;DHT22;777;47.156;8.326;2023-06-14T09:26:07;24.70;90.40
1568;DHT22;777;47.156;8.326;2023-06-14T09:28:37;24.80;88.70
1568;DHT22;777;47.156;8.326;2023-06-14T09:31:07;24.80;87.10
1568;DHT22;777;47.156;8.326;2023-06-14T09:33:35;24.90;86.10
1568;DHT22;777;47.156;8.326;2023-06-14T09:36:03;24.90;85.30
1568;DHT22;777;47.156;8.326;2023-06-14T09:38:30;24.20;84.50
1568;DHT22;777;47.156;8.326;2023-06-14T09:40:58;24.40;85.00
1568;DHT22;777;47.156;8.326;2023-06-14T09:43:25;24.40;85.10
1568;DHT22;777;47.156;8.326;2023-06-14T09:45:54;23.60;84.90
1568;DHT22;777;47.156;8.326;2023-06-14T09:48:21;23.40;85.60
1568;DHT22;777;47.156;8.326;2023-06-14T09:50:50;24.20;86.60
1568;DHT22;777;47.156;8.326;2023-06-14T09:53:21;24.90;86.40
1568;DHT22;777;47.156;8.326;2023-06-14T09:55:49;25.50;86.50
1568;DHT22;777;47.156;8.326;2023-06-14T09:58:19;25.50;83.70
1568;DHT22;777;47.156;8.326;2023-06-14T10:00:48;25.60;83.70
1568;DHT22;777;47.156;8.326;2023-06-14T10:03:21;25.20;81.00
1568;DHT22;777;47.156;8.326;2023-06-14T10:05:51;25.10;80.20
1568;DHT22;777;47.156;8.326;2023-06-14T10:08:22;24.90;80.90
1568;DHT22;777;47.156;8.326;2023-06-14T10:10:51;24.70;81.30
1568;DHT22;777;47.156;8.326;2023-06-14T10:13:18;25.10;83.00
1568;DHT22;777;47.156;8.326;2023-06-14T10:15:52;25.10;82.10
1568;DHT22;777;47.156;8.326;2023-06-14T10:18:30;25.30;82.10
1568;DHT22;777;47.156;8.326;2023-06-14T10:21:06;25.70;82.30
1568;DHT22;777;47.156;8.326;2023-06-14T10:23:38;25.80;81.50
1568;DHT22;777;47.156;8.326;2023-06-14T10:26:07;26.00;80.80
1568;DHT22;777;47.156;8.326;2023-06-14T10:28:37;25.90;78.20
1568;DHT22;777;47.156;8.326;2023-06-14T10:31:06;25.30;77.80
1568;DHT22;777;47.156;8.326;2023-06-14T10:33:35;25.00;78.10
1568;DHT22;777;47.156;8.326;2023-06-14T10:36:25;25.60;81.40
1568;DHT22;777;47.156;8.326;2023-06-14T10:39:05;25.30;79.00
1568;DHT22;777;47.156;8.326;2023-06-14T10:41:36;26.10;81.60
1568;DHT22;777;47.156;8.326;2023-06-14T10:44:32;26.80;81.90
1568;DHT22;777;47.156;8.326;2023-06-14T10:47:00;27.10;78.80
1568;DHT22;777;47.156;8.326;2023-06-14T10:49:39;26.40;77.30
1568;DHT22;777;47.156;8.326;2023-06-14T10:52:12;26.80;78.30
1568;DHT22;777;47.156;8.326;2023-06-14T10:55:08;27.00;76.60
1568;DHT22;777;47.156;8.326;2023-06-14T10:57:42;27.00;77.20
1568;DHT22;777;47.156;8.326;2023-06-14T11:00:10;27.30;76.20
1568;DHT22;777;47.156;8.326;2023-06-14T11:05:49;27.80;75.50
1568;DHT22;777;47.156;8.326;2023-06-14T11:11:16;26.80;72.80
1568;DHT22;777;47.156;8.326;2023-06-14T11:13:45;26.80;72.20
1568;DHT22;777;47.156;8.326;2023-06-14T11:16:13;27.20;73.50
1568;DHT22;777;47.156;8.326;2023-06-14T11:18:41;27.10;74.80
1568;DHT22;777;47.156;8.326;2023-06-14T11:21:09;27.50;75.90
1568;DHT22;777;47.156;8.326;2023-06-14T11:23:37;27.20;73.60
1568;DHT22;777;47.156;8.326;2023-06-14T11:26:04;26.90;73.10
1568;DHT22;777;47.156;8.326;2023-06-14T11:28:39;27.40;72.80
1568;DHT22;777;47.156;8.326;2023-06-14T11:31:07;27.60;72.40
1568;DHT22;777;47.156;8.326;2023-06-14T11:33:34;27.80;71.90
1568;DHT22;777;47.156;8.326;2023-06-14T11:36:02;28.00;71.10
1568;DHT22;777;47.156;8.326;2023-06-14T11:38:35;28.00;69.70
1568;DHT22;777;47.156;8.326;2023-06-14T11:41:02;28.20;69.00
1568;DHT22;777;47.156;8.326;2023-06-14T11:43:29;28.40;70.10
1568;DHT22;777;47.156;8.326;2023-06-14T11:45:58;28.50;68.70
1568;DHT22;777;47.156;8.326;2023-06-14T11:48:36;28.30;69.00
1568;DHT22;777;47.156;8.326;2023-06-14T11:51:03;26.90;72.60
1568;DHT22;777;47.156;8.326;2023-06-14T11:53:31;27.40;70.60
1568;DHT22;777;47.156;8.326;2023-06-14T11:55:58;27.90;71.30
1568;DHT22;777;47.156;8.326;2023-06-14T11:58:26;28.40;71.60
1568;DHT22;777;47.156;8.326;2023-06-14T12:00:54;28.70;70.30
1568;DHT22;777;47.156;8.326;2023-06-14T12:03:23;25.60;69.20
1568;DHT22;777;47.156;8.326;2023-06-14T12:06:02;25.50;71.80
1568;DHT22;777;47.156;8.326;2023-06-14T12:08:34;26.40;70.50
1568;DHT22;777;47.156;8.326;2023-06-14T12:11:04;28.00;71.80
1568;DHT22;777;47.156;8.326;2023-06-14T12:13:32;29.00;70.00
1568;DHT22;777;47.156;8.326;2023-06-14T12:15:59;28.20;69.40
1568;DHT22;777;47.156;8.326;2023-06-14T12:18:33;29.50;68.90
1568;DHT22;777;47.156;8.326;2023-06-14T12:21:02;28.70;65.50
1568;DHT22;777;47.156;8.326;2023-06-14T12:23:44;28.50;65.70
1568;DHT22;777;47.156;8.326;2023-06-14T12:26:13;30.30;64.10
1568;DHT22;777;47.156;8.326;2023-06-14T12:28:40;28.80;62.80
1568;DHT22;777;47.156;8.326;2023-06-14T12:31:07;29.00;65.80
1568;DHT22;777;47.156;8.326;2023-06-14T12:33:34;28.70;62.40
1568;DHT22;777;47.156;8.326;2023-06-14T12:36:03;27.30;60.80
1568;DHT22;777;47.156;8.326;2023-06-14T12:38:30;29.60;65.30
1568;DHT22;777;47.156;8.326;2023-06-14T12:40:59;28.90;62.30
1568;DHT22;777;47.156;8.326;2023-06-14T12:43:26;31.50;62.10
1568;DHT22;777;47.156;8.326;2023-06-14T12:45:53;32.00;61.60
1568;DHT22;777;47.156;8.326;2023-06-14T12:48:20;33.20;59.60
1568;DHT22;777;47.156;8.326;2023-06-14T12:50:47;30.30;56.70
1568;DHT22;777;47.156;8.326;2023-06-14T12:53:14;29.10;59.10
1568;DHT22;777;47.156;8.326;2023-06-14T12:55:42;30.70;58.50
1568;DHT22;777;47.156;8.326;2023-06-14T12:58:11;32.40;58.40
1568;DHT22;777;47.156;8.326;2023-06-14T13:00:39;33.60;56.70
1568;DHT22;777;47.156;8.326;2023-06-14T13:03:06;31.00;56.10
1568;DHT22;777;47.156;8.326;2023-06-14T13:05:33;32.10;57.00
1568;DHT22;777;47.156;8.326;2023-06-14T13:08:00;30.30;53.80
1568;DHT22;777;47.156;8.326;2023-06-14T13:10:27;30.20;55.00
1568;DHT22;777;47.156;8.326;2023-06-14T13:12:54;29.90;58.30
1568;DHT22;777;47.156;8.326;2023-06-14T13:15:26;32.30;57.90
1568;DHT22;777;47.156;8.326;2023-06-14T13:17:53;33.30;56.60
1568;DHT22;777;47.156;8.326;2023-06-14T13:20:20;32.90;55.30
1568;DHT22;777;47.156;8.326;2023-06-14T13:22:47;33.60;54.10
1568;DHT22;777;47.156;8.326;2023-06-14T13:25:15;33.10;54.50
1568;DHT22;777;47.156;8.326;2023-06-14T13:27:42;30.50;56.20
1568;DHT22;777;47.156;8.326;2023-06-14T13:30:10;31.60;57.60
1568;DHT22;777;47.156;8.326;2023-06-14T13:32:38;29.90;56.50
1568;DHT22;777;47.156;8.326;2023-06-14T13:35:06;28.60;55.60
1568;DHT22;777;47.156;8.326;2023-06-14T13:37:33;28.00;55.50
1568;DHT22;777;47.156;8.326;2023-06-14T13:40:00;30.30;56.50
1568;DHT22;777;47.156;8.326;2023-06-14T13:42:28;29.30;55.80
1568;DHT22;777;47.156;8.326;2023-06-14T13:44:57;29.50;55.90
1568;DHT22;777;47.156;8.326;2023-06-14T13:47:24;30.30;56.60
1568;DHT22;777;47.156;8.326;2023-06-14T13:49:52;29.70;54.10
1568;DHT22;777;47.156;8.326;2023-06-14T13:52:19;29.00;53.00
1568;DHT22;777;47.156;8.326;2023-06-14T13:54:46;30.70;53.40
1568;DHT22;777;47.156;8.326;2023-06-14T13:57:14;33.50;52.50
1568;DHT22;777;47.156;8.326;2023-06-14T13:59:41;32.20;53.80
1568;DHT22;777;47.156;8.326;2023-06-14T14:02:09;32.20;53.00
1568;DHT22;777;47.156;8.326;2023-06-14T14:04:37;30.00;52.20
1568;DHT22;777;47.156;8.326;2023-06-14T14:07:06;29.20;53.60
1568;DHT22;777;47.156;8.326;2023-06-14T14:09:34;28.50;54.70
1568;DHT22;777;47.156;8.326;2023-06-14T14:12:01;30.70;56.70
1568;DHT22;777;47.156;8.326;2023-06-14T14:14:29;30.30;55.50
1568;DHT22;777;47.156;8.326;2023-06-14T14:16:57;29.20;55.90
1568;DHT22;777;47.156;8.326;2023-06-14T14:19:24;29.10;56.20
1568;DHT22;777;47.156;8.326;2023-06-14T14:21:51;29.50;57.90
1568;DHT22;777;47.156;8.326;2023-06-14T14:24:20;28.90;58.10
1568;DHT22;777;47.156;8.326;2023-06-14T14:26:47;28.00;58.10
1568;DHT22;777;47.156;8.326;2023-06-14T14:29:15;28.30;58.60
1568;DHT22;777;47.156;8.326;2023-06-14T14:31:42;28.90;58.00
1568;DHT22;777;47.156;8.326;2023-06-14T14:34:09;31.10;57.40
1568;DHT22;777;47.156;8.326;2023-06-14T14:36:36;31.30;55.10
1568;DHT22;777;47.156;8.326;2023-06-14T14:39:07;32.60;54.80
1568;DHT22;777;47.156;8.326;2023-06-14T14:41:35;32.90;55.70
1568;DHT22;777;47.156;8.326;2023-06-14T14:44:04;30.50;58.10
1568;DHT22;777;47.156;8.326;2023-06-14T14:46:31;28.90;57.70
1568;DHT22;777;47.156;8.326;2023-06-14T14:48:59;29.20;59.20
1568;DHT22;777;47.156;8.326;2023-06-14T14:51:25;31.10;57.70
1568;DHT22;777;47.156;8.326;2023-06-14T14:53:52;33.00;57.00
1568;DHT22;777;47.156;8.326;2023-06-14T14:56:22;34.00;56.80
1568;DHT22;777;47.156;8.326;2023-06-14T14:58:50;35.10;55.20
1568;DHT22;777;47.156;8.326;2023-06-14T15:01:17;35.50;54.20
1568;DHT22;777;47.156;8.326;2023-06-14T15:03:44;36.20;54.30
1568;DHT22;777;47.156;8.326;2023-06-14T15:06:11;36.50;53.60
1568;DHT22;777;47.156;8.326;2023-06-14T15:08:38;36.30;53.30
1568;DHT22;777;47.156;8.326;2023-06-14T15:11:05;36.80;53.70
1568;DHT22;777;47.156;8.326;2023-06-14T15:13:32;37.10;52.50
1568;DHT22;777;47.156;8.326;2023-06-14T15:16:00;37.00;52.60
1568;DHT22;777;47.156;8.326;2023-06-14T15:18:27;34.20;52.80
1568;DHT22;777;47.156;8.326;2023-06-14T15:20:54;32.80;51.90
1568;DHT22;777;47.156;8.326;2023-06-14T15:23:22;29.20;54.20
1568;DHT22;777;47.156;8.326;2023-06-14T15:25:49;29.30;55.90
1568;DHT22;777;47.156;8.326;2023-06-14T15:28:17;29.30;56.90
1568;DHT22;777;47.156;8.326;2023-06-14T15:30:44;29.40;56.80
1568;DHT22;777;47.156;8.326;2023-06-14T15:33:13;29.50;58.00
1568;DHT22;777;47.156;8.326;2023-06-14T15:35:40;28.50;56.80
1568;DHT22;777;47.156;8.326;2023-06-14T15:38:07;31.10;57.40
1568;DHT22;777;47.156;8.326;2023-06-14T15:40:34;32.70;57.30
1568;DHT22;777;47.156;8.326;2023-06-14T15:43:01;29.90;54.60
1568;DHT22;777;47.156;8.326;2023-06-14T15:45:29;29.20;55.80
1568;DHT22;777;47.156;8.326;2023-06-14T15:47:57;29.20;55.70
1568;DHT22;777;47.156;8.326;2023-06-14T15:50:27;28.50;57.20
1568;DHT22;777;47.156;8.326;2023-06-14T15:52:54;28.10;57.70
1568;DHT22;777;47.156;8.326;2023-06-14T15:55:21;29.70;58.50
1568;DHT22;777;47.156;8.326;2023-06-14T15:57:48;30.50;56.30
1568;DHT22;777;47.156;8.326;2023-06-14T16:00:16;29.70;54.50
1568;DHT22;777;47.156;8.326;2023-06-14T16:02:43;28.80;55.00
1568;DHT22;777;47.156;8.326;2023-06-14T16:05:10;29.50;54.60
1568;DHT22;777;47.156;8.326;2023-06-14T16:07:38;29.40;55.50
1568;DHT22;777;47.156;8.326;2023-06-14T16:10:05;29.40;55.20
1568;DHT22;777;47.156;8.326;2023-06-14T16:12:32;30.00;55.60
1568;DHT22;777;47.156;8.326;2023-06-14T16:14:59;29.10;56.20
1568;DHT22;777;47.156;8.326;2023-06-14T16:17:26;31.00;56.90
1568;DHT22;777;47.156;8.326;2023-06-14T16:19:53;32.40;55.70
1568;DHT22;777;47.156;8.326;2023-06-14T16:22:20;33.10;54.80
1568;DHT22;777;47.156;8.326;2023-06-14T16:24:49;33.40;54.20
1568;DHT22;777;47.156;8.326;2023-06-14T16:27:16;32.90;54.20
1568;DHT22;777;47.156;8.326;2023-06-14T16:29:43;32.90;54.30